Time;durP1;ratioP1;P1;durP2;ratioP2;P2;SDS_P1;SDS_P2;PMS_P1;PMS_P2;Temp;Humidity;BMP_temperature;BMP_pressure;BME280_temperature;BME280_humidity;BME280_pressure;Samples;Min_cycle;Max_cycle;Signal;HPM_P1;HPM_P2
2022/05/13 00:00:06;;;;;;;;;1.67;1.67;;;;;16.53;50.95;101419.31;4873329;29;46725;-84
2022/05/13 00:02:32;;;;;;;;;2.00;2.00;;;;;16.58;51.02;101433.66;4890670;29;45410;-84
2022/05/13 00:04:57;;;;;;;;;1.00;1.00;;;;;16.52;50.85;101422.00;4875079;29;45451;-85
2022/05/13 00:07:23;;;;;;;;;4.00;2.00;;;;;16.50;51.26;101430.06;4878143;29;44899;-84
2022/05/13 00:09:57;;;;;;;;;5.00;1.67;;;;;16.48;51.56;101437.22;4877521;29;47421;-84
2022/05/13 00:12:32;;;;;;;;;1.00;1.00;;;;;16.48;51.57;101434.53;4876957;29;45535;-84
2022/05/13 00:14:58;;;;;;;;;3.67;3.67;;;;;16.26;52.22;101416.59;4877659;29;45513;-84
2022/05/13 00:18:13;;;;;;;;;3.00;3.00;;;;;16.32;52.00;101432.69;4877861;29;45449;-83
2022/05/13 00:20:39;;;;;;;;;3.00;3.00;;;;;16.19;53.19;101434.47;4878271;29;45705;-83
2022/05/13 00:23:04;;;;;;;;;2.33;2.33;;;;;16.11;52.71;101434.47;4877228;29;44843;-85
2022/05/13 00:25:34;;;;;;;;;3.00;3.00;;;;;16.16;53.14;101434.50;4877093;29;44924;-84
2022/05/13 00:28:00;;;;;;;;;6.00;3.00;;;;;16.13;53.37;101440.72;4879226;29;45359;-83
2022/05/13 00:30:29;;;;;;;;;1.00;1.00;;;;;16.07;53.13;101429.09;4877042;29;46981;-83
2022/05/13 00:32:54;;;;;;;;;3.67;3.67;;;;;16.02;53.29;101431.78;4878926;29;45428;-84
2022/05/13 00:35:21;;;;;;;;;2.00;2.00;;;;;15.90;53.87;101413.84;4862395;29;45651;-82
2022/05/13 00:37:47;;;;;;;;;3.00;2.00;;;;;15.98;53.70;101433.53;4878478;29;45363;-83
2022/05/13 00:40:21;;;;;;;;;3.00;3.00;;;;;16.03;53.43;101419.25;4874163;29;45302;-84
2022/05/13 00:42:48;;;;;;;;;3.00;3.00;;;;;15.95;53.76;101412.06;4859996;29;44917;-85
2022/05/13 00:45:14;;;;;;;;;3.33;3.33;;;;;16.04;53.75;101426.38;4860271;29;45320;-86
2022/05/13 00:47:42;;;;;;;;;4.33;2.00;;;;;16.07;54.19;101421.03;4854992;29;45047;-85
2022/05/13 00:50:09;;;;;;;;;3.67;3.00;;;;;16.05;53.53;101426.41;4843935;29;47134;-85
2022/05/13 00:52:36;;;;;;;;;4.00;3.00;;;;;15.97;52.97;101420.13;4859741;29;45822;-84
2022/05/13 00:55:09;;;;;;;;;4.00;2.00;;;;;16.00;53.07;101430.88;4860025;29;45445;-84
2022/05/13 00:57:35;;;;;;;;;3.33;1.67;;;;;15.87;53.22;101429.03;4857667;29;45035;-85
2022/05/13 01:00:06;;;;;;;;;2.67;2.00;;;;;15.87;53.22;101434.41;4842428;29;46905;-86
2022/05/13 01:02:33;;;;;;;;;2.00;2.00;;;;;15.74;53.75;101429.00;4854685;29;45992;-84
2022/05/13 01:04:59;;;;;;;;;1.00;1.00;;;;;15.67;53.47;101431.59;4859006;29;45735;-84
2022/05/13 01:07:25;;;;;;;;;2.00;2.00;;;;;15.67;53.82;101443.22;4859382;29;45817;-85
2022/05/13 01:09:56;;;;;;;;;2.67;2.67;;;;;15.70;53.65;101432.53;4842724;29;47056;-85
2022/05/13 01:12:44;;;;;;;;;1.00;1.00;;;;;15.70;53.57;101440.56;4859665;29;44765;-84
2022/05/13 01:15:24;;;;;;;;;2.33;2.00;;;;;15.63;53.53;101435.16;4843112;29;45691;-84
2022/05/13 01:18:07;;;;;;;;;2.67;1.67;;;;;15.55;53.84;101430.69;4844194;29;45421;-86
2022/05/13 01:20:41;;;;;;;;;2.33;2.00;;;;;15.52;53.72;101432.44;4860381;29;45467;-85
2022/05/13 01:23:16;;;;;;;;;4.00;2.00;;;;;15.50;53.62;101434.22;4859295;29;45475;-84
2022/05/13 01:25:44;;;;;;;;;2.67;2.67;;;;;15.42;53.73;101441.31;4860412;29;45500;-85
2022/05/13 01:28:14;;;;;;;;;1.00;1.00;;;;;15.43;54.42;101435.06;4847454;29;45678;-84
2022/05/13 01:30:46;;;;;;;;;3.00;1.33;;;;;15.36;53.28;101429.66;4879140;29;46606;-85
2022/05/13 01:33:13;;;;;;;;;1.00;1.00;;;;;15.35;53.79;101433.25;4880124;29;45513;-84
2022/05/13 01:35:41;;;;;;;;;2.00;2.00;;;;;15.34;53.15;101433.25;4878137;29;45498;-85
2022/05/13 01:38:06;;;;;;;;;2.33;2.00;;;;;15.33;53.22;101443.06;4878609;29;45539;-85
2022/05/13 01:40:32;;;;;;;;;2.00;1.00;;;;;15.32;53.60;101446.63;4878200;29;45169;-85
2022/05/13 01:42:57;;;;;;;;;1.67;1.67;;;;;15.27;53.11;101447.47;4876045;29;45424;-84
2022/05/13 01:45:24;;;;;;;;;1.33;1.00;;;;;15.24;53.05;101440.31;4878350;29;45822;-85
2022/05/13 01:47:49;;;;;;;;;0.67;0.67;;;;;15.27;53.25;101445.72;4876001;29;44856;-83
2022/05/13 01:50:15;;;;;;;;;2.00;1.00;;;;;15.31;52.81;101443.94;4876102;29;45405;-83
2022/05/13 01:52:40;;;;;;;;;2.00;2.00;;;;;15.27;52.84;101442.13;4874843;29;45376;-84
2022/05/13 01:55:06;;;;;;;;;1.33;1.33;;;;;15.31;52.88;101439.50;4874937;29;45484;-84
2022/05/13 01:57:32;;;;;;;;;1.00;1.00;;;;;15.25;53.20;101423.38;4874360;29;44816;-85
2022/05/13 01:59:57;;;;;;;;;1.33;1.33;;;;;15.36;52.84;101434.16;4874185;29;47229;-85
2022/05/13 02:02:22;;;;;;;;;1.67;1.67;;;;;15.38;52.63;101425.22;4875902;29;45394;-84
2022/05/13 02:04:49;;;;;;;;;2.00;2.00;;;;;15.38;52.82;101430.56;4874895;29;45804;-84
2022/05/13 02:07:16;;;;;;;;;1.00;1.00;;;;;15.40;52.94;101436.84;4877867;29;45512;-84
2022/05/13 02:09:42;;;;;;;;;2.00;2.00;;;;;15.40;52.86;101441.31;4861990;29;47105;-84
2022/05/13 02:12:08;;;;;;;;;1.00;1.00;;;;;15.40;52.77;101442.19;4878676;29;45462;-84
2022/05/13 02:14:34;;;;;;;;;2.33;2.33;;;;;15.37;52.50;101434.16;4877710;29;44770;-84
2022/05/13 02:16:59;;;;;;;;;1.33;1.33;;;;;15.34;52.79;101423.41;4878883;29;45477;-85
2022/05/13 02:19:25;;;;;;;;;2.33;2.00;;;;;15.26;52.28;101419.78;4878813;29;45247;-85
2022/05/13 02:21:50;;;;;;;;;2.67;2.67;;;;;15.32;52.25;101441.25;4877215;29;45428;-84
2022/05/13 02:24:16;;;;;;;;;2.67;2.67;;;;;15.16;52.58;101423.31;4876617;29;44761;-85
2022/05/13 02:26:42;;;;;;;;;2.33;2.33;;;;;15.18;52.21;101437.59;4876168;29;45520;-84
2022/05/13 02:29:07;;;;;;;;;4.00;2.67;;;;;15.17;52.30;101431.38;4875080;29;47422;-85
2022/05/13 02:31:34;;;;;;;;;1.67;1.67;;;;;15.24;52.39;101442.13;4877181;29;44792;-83
2022/05/13 02:33:59;;;;;;;;;2.67;2.67;;;;;15.20;52.16;101434.03;4876857;29;45206;-84
2022/05/13 02:36:25;;;;;;;;;2.00;2.00;;;;;15.22;52.39;101433.16;4876865;29;45852;-84
2022/05/13 02:38:51;;;;;;;;;2.00;2.00;;;;;15.28;52.14;101441.25;4876464;29;46547;-85
2022/05/13 02:41:16;;;;;;;;;2.67;2.67;;;;;15.30;52.24;101450.19;4877969;29;44766;-85
2022/05/13 02:43:50;;;;;;;;;3.00;3.00;;;;;15.32;52.15;101449.31;4879029;29;44784;-84
2022/05/13 02:46:20;;;;;;;;;6.00;4.67;;;;;15.29;52.61;101441.25;4878150;29;44961;-84
2022/05/13 02:48:46;;;;;;;;;6.00;4.33;;;;;15.29;52.88;101440.34;4878023;29;47175;-84
2022/05/13 02:51:12;;;;;;;;;5.67;4.00;;;;;15.30;53.00;101439.47;4878974;29;45590;-84
2022/05/13 02:53:38;;;;;;;;;7.67;6.33;;;;;15.30;53.48;101435.00;4877136;29;45522;-85
2022/05/13 02:56:07;;;;;;;;;6.00;6.00;;;;;15.35;53.47;101435.94;4877194;29;45643;-85
2022/05/13 02:58:33;;;;;;;;;10.00;7.33;;;;;15.33;53.68;101435.03;4876363;29;47121;-84
2022/05/13 03:00:59;;;;;;;;;7.33;7.33;;;;;15.31;54.30;101439.50;4877583;29;45464;-84
2022/05/13 03:03:24;;;;;;;;;8.67;8.67;;;;;15.26;54.42;101427.84;4878241;29;45473;-84
2022/05/13 03:05:50;;;;;;;;;7.33;7.33;;;;;15.34;54.43;101444.84;4878203;29;45602;-84
2022/05/13 03:08:19;;;;;;;;;10.00;6.67;;;;;15.29;54.17;101427.88;4877549;29;45335;-85
2022/05/13 03:17:29;;;;;;;;;5.00;5.00;;;;;15.30;54.15;101435.00;4877105;29;44893;-85
2022/05/13 03:19:55;;;;;;;;;5.33;4.33;;;;;15.18;54.03;101426.88;4875045;29;45738;-85
2022/05/13 03:22:21;;;;;;;;;7.00;5.67;;;;;15.18;54.13;101437.59;4875655;29;45356;-84
2022/05/13 03:24:47;;;;;;;;;5.67;5.00;;;;;15.21;54.35;101440.31;4875549;29;44784;-84
2022/05/13 03:27:12;;;;;;;;;5.67;4.00;;;;;15.21;54.21;101443.00;4875280;29;45525;-86
2022/05/13 03:29:45;;;;;;;;;4.67;4.67;;;;;15.24;53.93;101434.06;4863756;29;47264;-85
2022/05/13 03:32:11;;;;;;;;;5.00;4.67;;;;;15.12;54.05;101427.75;4873032;29;45447;-84
2022/05/13 03:34:40;;;;;;;;;7.33;4.67;;;;;15.05;53.94;101419.66;4874830;29;44800;-84
2022/05/13 03:37:07;;;;;;;;;3.33;3.33;;;;;15.12;54.11;101445.59;4875946;29;45648;-84
2022/05/13 03:39:32;;;;;;;;;3.67;3.67;;;;;15.09;53.94;101437.53;4874682;29;46328;-84
2022/05/13 03:41:58;;;;;;;;;4.00;4.00;;;;;15.08;54.04;101443.78;4872534;29;44809;-84
2022/05/13 03:44:23;;;;;;;;;2.67;2.67;;;;;15.07;54.14;101440.22;4871835;29;45021;-84
2022/05/13 03:46:50;;;;;;;;;5.33;3.00;;;;;15.03;54.13;101442.84;4874006;29;45333;-84
2022/05/13 03:49:16;;;;;;;;;9.00;5.67;;;;;15.02;54.18;101441.06;4873390;29;46273;-84
2022/05/13 03:51:42;;;;;;;;;6.33;4.33;;;;;14.99;54.27;101450.00;4871650;29;45481;-84
2022/05/13 03:54:09;;;;;;;;;5.00;5.00;;;;;14.99;54.11;101442.84;4873304;29;45390;-84
2022/05/13 03:56:35;;;;;;;;;5.00;5.00;;;;;14.95;53.97;101451.75;4873401;29;45448;-85
2022/05/13 03:59:00;;;;;;;;;4.00;3.00;;;;;14.92;53.98;101442.78;4873436;29;47437;-83
2022/05/13 04:01:25;;;;;;;;;4.67;3.67;;;;;14.92;53.69;101442.78;4872637;29;45416;-83
2022/05/13 04:03:51;;;;;;;;;3.33;3.33;;;;;14.90;53.86;101447.22;4873031;29;45323;-83
2022/05/13 04:09:39;;;;;;;;;2.33;2.33;;;;;14.86;54.08;101456.13;4872557;29;45854;-84
2022/05/13 04:17:33;;;;;;;;;2.67;2.67;;;;;14.79;54.50;101439.13;4875972;29;45412;-84
2022/05/13 04:19:58;;;;;;;;;4.00;3.00;;;;;14.78;54.69;101434.63;4873240;29;46771;-83
2022/05/13 04:22:26;;;;;;;;;2.00;2.00;;;;;14.86;54.66;101446.31;4872608;29;45427;-84
2022/05/13 04:24:52;;;;;;;;;2.00;2.00;;;;;14.89;54.80;101458.84;4873658;29;45435;-83
2022/05/13 04:27:18;;;;;;;;;3.00;3.00;;;;;14.82;54.66;101446.28;4875226;29;44937;-83
2022/05/13 04:29:44;;;;;;;;;3.00;3.00;;;;;14.84;54.61;101456.13;4862920;29;45450;-84
2022/05/13 04:32:10;;;;;;;;;3.33;3.00;;;;;14.81;54.66;101453.44;4875818;29;45391;-84
2022/05/13 04:34:36;;;;;;;;;3.00;3.00;;;;;14.89;55.29;101467.78;4892876;29;45348;-85
2022/05/13 04:37:02;;;;;;;;;4.67;3.00;;;;;14.86;55.29;101475.75;4876124;29;45345;-83
2022/05/13 04:39:28;;;;;;;;;2.67;2.67;;;;;14.58;55.00;101424.69;4878745;29;47303;-84
2022/05/13 04:44:38;;;;;;;;;3.33;3.33;;;;;14.78;55.09;101464.09;4895070;29;45910;-84
2022/05/13 04:48:14;;;;;;;;;3.00;3.00;;;;;14.87;55.55;101471.34;4893725;29;45560;-83
2022/05/13 04:49:49;;;;;;;;;2.67;2.67;;;;;14.85;55.66;101460.59;4897383;29;45868;-84
2022/05/13 04:52:14;;;;;;;;;3.00;3.00;;;;;15.03;55.71;101475.00;4881110;29;45410;-84
2022/05/13 04:54:41;;;;;;;;;3.33;3.33;;;;;15.01;55.60;101461.63;4882067;29;45438;-84
2022/05/13 04:57:07;;;;;;;;;3.33;3.33;;;;;15.06;55.60;101467.00;4899339;29;45497;-84
2022/05/13 04:59:32;;;;;;;;;5.33;4.00;;;;;15.17;55.59;101476.03;4880944;29;46645;-83
2022/05/13 05:01:58;;;;;;;;;3.33;3.33;;;;;15.26;55.47;101478.75;4881871;29;45325;-84
2022/05/13 05:05:11;;;;;;;;;4.00;4.00;;;;;15.44;55.38;101487.81;4880965;29;45349;-84
2022/05/13 05:07:37;;;;;;;;;5.00;3.00;;;;;15.45;55.38;101489.56;4879638;29;44932;-84
2022/05/13 05:10:04;;;;;;;;;4.33;4.33;;;;;15.45;55.52;101489.56;4880318;29;46680;-84
2022/05/13 05:12:29;;;;;;;;;2.00;2.00;;;;;15.38;55.78;101484.19;4880100;29;45894;-84
2022/05/13 05:14:55;;;;;;;;;4.67;4.67;;;;;15.42;55.94;101478.84;4897319;29;44815;-85
2022/05/13 05:17:20;;;;;;;;;4.67;4.00;;;;;15.48;55.79;101473.53;4897768;29;44793;-83
2022/05/13 05:19:46;;;;;;;;;3.33;3.33;;;;;15.69;55.22;101494.19;4882098;29;45347;-84
2022/05/13 05:22:12;;;;;;;;;4.00;4.00;;;;;15.76;55.33;101483.53;4880357;29;45389;-84
2022/05/13 05:24:37;;;;;;;;;4.33;3.67;;;;;15.89;55.23;101491.63;4879355;29;44889;-85
2022/05/13 05:27:05;;;;;;;;;3.33;3.33;;;;;15.98;54.96;101497.94;4879969;29;45126;-84
2022/05/13 05:29:43;;;;;;;;;5.00;4.00;;;;;16.15;54.75;101499.78;4896288;29;45434;-85
2022/05/13 05:32:09;;;;;;;;;6.00;6.00;;;;;16.16;54.69;101501.59;4857532;29;45212;-84
2022/05/13 05:34:36;;;;;;;;;7.33;5.67;;;;;16.22;54.83;101492.63;4858739;29;45285;-84
2022/05/13 05:37:02;;;;;;;;;3.00;3.00;;;;;16.32;54.18;101503.41;4857883;29;45390;-86
2022/05/13 05:39:27;;;;;;;;;3.00;3.00;;;;;16.37;54.33;101507.00;4857255;29;45402;-84
2022/05/13 05:41:53;;;;;;;;;3.33;3.33;;;;;16.49;54.31;101505.25;4859439;29;45805;-83
2022/05/13 05:44:19;;;;;;;;;3.67;3.67;;;;;16.58;54.01;101514.22;4857128;29;45267;-84
2022/05/13 05:46:44;;;;;;;;;2.67;2.00;;;;;16.67;53.87;101510.63;4856944;29;45518;-85
2022/05/13 05:49:10;;;;;;;;;3.00;3.00;;;;;16.76;53.99;101517.78;4860922;29;46669;-84
2022/05/13 05:51:37;;;;;;;;;2.00;2.00;;;;;16.84;53.59;101513.34;4860704;29;45542;-85
2022/05/13 05:59:31;;;;;;;;;4.00;3.67;;;;;17.06;53.54;101518.75;4859143;29;46614;-85
2022/05/13 06:01:59;;;;;;;;;3.00;3.00;;;;;17.23;53.15;101525.03;4860665;29;45506;-86
2022/05/13 06:04:25;;;;;;;;;4.00;4.00;;;;;17.31;53.19;101531.28;4860750;29;45207;-85
2022/05/13 06:06:51;;;;;;;;;1.33;1.33;;;;;17.36;52.84;101524.09;4860447;29;45381;-85
2022/05/13 06:09:17;;;;;;;;;4.00;2.33;;;;;17.43;52.59;101529.47;4859708;29;47430;-84
2022/05/13 06:11:44;;;;;;;;;5.00;4.00;;;;;17.51;52.58;101527.66;4859652;29;45609;-85
2022/05/13 06:14:11;;;;;;;;;4.00;4.00;;;;;17.65;52.55;101533.88;4860367;29;45240;-85
2022/05/13 06:16:37;;;;;;;;;6.00;3.00;;;;;17.72;52.09;101533.00;4855927;29;45551;-85
2022/05/13 06:19:03;;;;;;;;;3.00;2.00;;;;;17.74;51.94;101536.56;4857511;29;45411;-85
2022/05/13 06:21:35;;;;;;;;;4.00;3.00;;;;;17.81;52.30;101550.88;4841036;29;45443;-85
2022/05/13 06:24:01;;;;;;;;;3.00;3.00;;;;;17.73;52.02;101545.56;4859321;29;45469;-86
2022/05/13 06:26:27;;;;;;;;;3.67;3.00;;;;;17.53;52.54;101533.91;4842445;29;44961;-84
2022/05/13 06:28:57;;;;;;;;;2.67;2.67;;;;;17.71;52.45;101541.94;4857804;29;47313;-84
2022/05/13 06:31:26;;;;;;;;;3.67;3.67;;;;;17.90;52.39;101540.16;4884803;29;45470;-84
2022/05/13 06:33:52;;;;;;;;;2.67;2.67;;;;;17.93;52.00;101550.00;4881479;29;44832;-85
2022/05/13 06:36:18;;;;;;;;;3.67;2.00;;;;;17.87;52.25;101547.31;4864835;29;44984;-84
2022/05/13 06:38:43;;;;;;;;;2.00;2.00;;;;;17.87;51.97;101558.09;4879884;29;47189;-84
2022/05/13 06:41:40;;;;;;;;;3.33;3.33;;;;;17.96;51.69;101552.69;4896565;29;44694;-84
2022/05/13 06:44:08;;;;;;;;;2.00;2.00;;;;;17.96;52.00;101552.69;4878628;29;44715;-86
2022/05/13 06:46:38;;;;;;;;;2.67;2.67;;;;;17.99;51.35;101540.09;4880328;29;45569;-85
2022/05/13 06:49:06;;;;;;;;;2.33;2.33;;;;;18.08;51.30;101552.66;4878102;29;47142;-85
2022/05/13 06:51:34;;;;;;;;;3.00;3.00;;;;;18.06;50.98;101562.53;4896150;29;45552;-84
2022/05/13 06:57:26;;;;;;;;;3.67;1.33;;;;;18.46;50.42;101562.34;4897079;29;44742;-85
2022/05/13 06:59:59;;;;;;;;;2.33;2.33;;;;;18.43;49.97;101565.03;4880365;29;47837;-85
2022/05/13 07:02:27;;;;;;;;;3.00;3.00;;;;;18.41;49.57;101544.41;4897699;29;45478;-85
2022/05/13 07:04:54;;;;;;;;;2.00;2.00;;;;;18.37;48.89;101538.13;4897869;29;45744;-85
2022/05/13 07:07:19;;;;;;;;;1.00;1.00;;;;;18.40;48.66;101567.78;4878519;29;44836;-86
2022/05/13 07:09:45;;;;;;;;;1.33;1.00;;;;;18.27;48.69;101575.00;4894035;29;45376;-85
2022/05/13 07:12:17;;;;;;;;;1.00;1.00;;;;;18.25;49.30;101575.91;4864797;29;44812;-85
2022/05/13 07:14:44;;;;;;;;;1.00;1.00;;;;;17.96;49.43;101526.66;4894311;29;45312;-85
2022/05/13 07:17:19;;;;;;;;;1.00;1.00;;;;;18.27;49.27;101563.31;4876517;29;45269;-87
2022/05/13 07:19:45;;;;;;;;;1.00;1.00;;;;;18.50;48.31;101574.91;4877940;28;45240;-86
2022/05/13 07:22:26;;;;;;;;;2.00;2.00;;;;;18.67;48.24;101569.41;4877390;29;45528;-85
2022/05/13 07:25:31;;;;;;;;;2.67;2.67;;;;;18.96;47.31;101584.50;4894858;29;44849;-84
2022/05/13 07:31:22;;;;;;;;;1.00;0.67;;;;;18.77;47.55;101551.38;4892657;29;45603;-84
2022/05/13 07:34:22;;;;;;;;;;;;;;;;;;;;;
2022/05/13 07:37:05;;;;;;;;;3.00;3.00;;;;;18.76;47.95;101579.22;4837768;29;67965;-86
2022/05/13 07:46:36;;;;;;;;;2.33;2.33;;;;;18.94;47.18;101583.63;4699521;30;45425;-86
2022/05/13 07:49:15;;;;;;;;;3.00;1.67;;;;;18.89;47.35;101580.97;4693934;30;44905;-87
2022/05/13 07:55:08;;;;;;;;;1.00;1.00;;;;;19.08;47.17;101592.50;4694235;30;45501;-87
2022/05/13 07:58:15;;;;;;;;;2.00;2.00;;;;;19.02;47.15;101570.97;4688242;30;45498;-87
2022/05/13 08:01:11;;;;;;;;;;;;;;;;;;;;;
2022/05/13 08:06:33;;;;;;;;;2.67;2.00;;;;;18.69;47.36;101539.75;4906571;23;45995;-86
2022/05/13 08:09:13;;;;;;;;;3.00;2.00;;;;;18.87;47.84;101596.25;4858733;29;45388;-87
2022/05/13 08:14:15;;;;;;;;;1.67;1.67;;;;;19.02;47.06;101578.19;4816131;26;45557;-86
2022/05/13 08:16:41;;;;;;;;;2.00;2.00;;;;;18.93;46.88;101580.03;4894551;29;45555;-86
2022/05/13 08:19:07;;;;;;;;;0.00;0.00;;;;;18.76;46.93;101557.66;4878592;28;45534;-86
2022/05/13 08:21:33;;;;;;;;;1.33;1.33;;;;;18.72;47.63;101539.72;4878616;29;45595;-85
2022/05/13 08:24:20;;;;;;;;;2.00;2.00;;;;;19.08;46.88;101559.25;4901233;29;45322;-85
2022/05/13 08:26:52;;;;;;;;;3.00;3.00;;;;;19.01;47.29;101541.31;4884910;28;46908;-87
2022/05/13 08:29:17;;;;;;;;;3.00;3.00;;;;;19.22;47.25;101545.66;4885839;29;45331;-84
2022/05/13 08:31:43;;;;;;;;;2.00;2.00;;;;;19.29;44.82;101568.97;4883595;29;45452;-85
2022/05/13 08:34:10;;;;;;;;;3.00;2.67;;;;;19.31;46.02;101586.94;4882335;29;45432;-86
2022/05/13 08:36:36;;;;;;;;;2.33;2.33;;;;;19.39;46.02;101571.56;4869037;29;47011;-87
2022/05/13 08:39:15;;;;;;;;;3.00;3.00;;;;;19.49;44.96;101576.88;4900993;29;44827;-85
2022/05/13 08:42:15;;;;;;;;;1.00;1.00;;;;;19.47;44.45;101592.19;4882920;29;45483;-85
2022/05/13 08:44:41;;;;;;;;;4.00;2.67;;;;;19.37;45.02;101583.31;4901419;29;45349;-86
2022/05/13 08:47:20;;;;;;;;;1.67;1.00;;;;;19.53;45.09;101579.53;4920340;28;45374;-85
2022/05/13 08:50:07;;;;;;;;;2.00;2.00;;;;;19.60;44.15;101569.56;4886592;29;45769;-85
2022/05/13 08:59:31;;;;;;;;;3.00;2.00;;;;;20.07;43.18;101567.28;4893037;29;45292;-86
2022/05/13 09:02:13;;;;;;;;;2.33;2.33;;;;;20.22;41.98;101577.00;4882708;29;45548;-85
2022/05/13 09:05:04;;;;;;;;;1.67;1.67;;;;;20.04;41.16;101562.84;4907416;29;45443;-87
2022/05/13 09:07:29;;;;;;;;;1.00;1.00;;;;;19.97;40.29;101580.00;4904659;29;45315;-85
2022/05/13 09:10:10;;;;;;;;;3.00;1.00;;;;;20.14;41.15;101582.53;4903362;29;46377;-86
2022/05/13 09:13:02;;;;;;;;;1.00;1.00;;;;;19.99;41.13;101527.75;4863211;29;44899;-86
2022/05/13 09:16:00;;;;;;;;;1.00;1.00;;;;;20.27;40.80;101583.25;4886164;28;44751;-87
2022/05/13 09:19:18;;;;;;;;;1.00;1.00;;;;;19.97;40.37;101528.69;4876540;29;45517;-86
2022/05/13 09:21:53;;;;;;;;;1.33;1.33;;;;;20.07;40.82;101549.28;4819630;29;45820;-87
2022/05/13 09:24:33;;;;;;;;;1.67;1.67;;;;;19.95;40.95;101527.81;4826176;29;45600;-86
2022/05/13 09:26:59;;;;;;;;;3.33;2.00;;;;;19.98;41.17;101549.41;4794412;29;45293;-86
2022/05/13 09:29:34;;;;;;;;;;;;;;;;;;;;;
2022/05/13 09:32:39;;;;;;;;;0.67;0.67;;;;;20.04;40.51;101521.44;4822502;29;74857;-86
2022/05/13 09:35:24;;;;;;;;;1.00;1.00;;;;;20.20;40.09;101541.94;4822090;29;45547;-86
2022/05/13 09:37:55;;;;;;;;;3.00;3.00;;;;;20.53;39.03;101575.69;4825486;29;44816;-86
2022/05/13 09:40:27;;;;;;;;;1.00;1.00;;;;;20.43;37.64;101547.00;4824313;29;45502;-86
2022/05/13 09:43:11;;;;;;;;;0.00;0.00;;;;;20.49;38.16;101565.84;4824516;29;45428;-87
2022/05/13 09:45:54;;;;;;;;;;;;;;;;;;;;;
2022/05/13 09:48:40;;;;;;;;;;;;;;;;;;;;;
2022/05/13 09:52:10;;;;;;;;;1.00;1.00;;;;;20.53;37.42;101569.41;4823861;29;64581;-86
2022/05/13 09:55:13;;;;;;;;;;;;;;;;;;;;;
2022/05/13 09:58:34;;;;;;;;;;;;;;;;;;;;;
2022/05/13 10:01:10;;;;;;;;;1.00;1.00;;;;;20.09;37.97;101520.44;4768752;29;68482;-87
2022/05/13 10:03:59;;;;;;;;;2.00;2.00;;;;;20.43;38.86;101567.75;4754964;29;45616;-87
2022/05/13 10:06:45;;;;;;;;;1.00;1.00;;;;;20.47;38.48;101548.75;4768119;29;46408;-86
2022/05/13 10:15:38;;;;;;;;;2.00;2.00;;;;;20.60;37.90;101559.41;4769200;29;45459;-87
2022/05/13 10:18:24;;;;;;;;;3.33;3.33;;;;;20.53;37.85;101547.78;4771924;29;45610;-85
2022/05/13 10:21:07;;;;;;;;;2.67;1.33;;;;;20.56;37.63;101556.75;4752922;29;45220;-86
2022/05/13 10:23:45;;;;;;;;;2.00;2.00;;;;;20.54;38.29;101555.88;4773655;29;44920;-86
2022/05/13 10:26:15;;;;;;;;;2.00;2.00;;;;;20.40;38.57;101520.06;4769846;29;45389;-87
2022/05/13 10:29:13;;;;;;;;;2.00;2.00;;;;;20.46;37.63;101525.38;4794174;29;45201;-87
2022/05/13 10:32:18;;;;;;;;;0.00;0.00;;;;;20.60;38.08;101549.50;4852006;29;45394;-87
2022/05/13 10:34:53;;;;;;;;;2.00;1.00;;;;;20.64;38.05;101548.53;4886186;29;45452;-86
2022/05/13 10:41:31;;;;;;;;;3.00;2.00;;;;;20.45;38.33;101507.34;4898020;29;45737;-87
2022/05/13 10:44:30;;;;;;;;;3.00;3.00;;;;;20.70;38.16;101539.44;4910955;28;45460;-87
2022/05/13 10:47:05;;;;;;;;;4.00;4.00;;;;;20.64;38.39;101507.09;4881433;29;45347;-85
2022/05/13 10:49:39;;;;;;;;;3.67;3.00;;;;;20.98;38.26;101527.28;4898739;29;44974;-86
2022/05/13 10:52:56;;;;;;;;;1.00;1.00;;;;;21.26;37.56;101534.91;4897319;29;46590;-87
2022/05/13 10:55:43;;;;;;;;;2.33;2.33;;;;;21.30;36.89;101533.94;4884046;29;45395;-87
2022/05/13 10:58:43;;;;;;;;;1.00;1.00;;;;;21.34;36.40;101522.16;4879921;29;45379;-87
2022/05/13 11:01:45;;;;;;;;;1.00;1.00;;;;;21.27;35.89;101542.13;4887673;29;45350;-85
2022/05/13 11:04:26;;;;;;;;;2.00;2.00;;;;;21.07;37.29;101538.88;4896070;29;45963;-86
2022/05/13 11:06:55;;;;;;;;;2.00;2.00;;;;;20.92;37.43;101527.38;4898587;29;44852;-88
2022/05/13 11:09:35;;;;;;;;;2.33;1.00;;;;;21.03;37.76;101527.22;4896552;29;45539;-87
2022/05/13 11:12:42;;;;;;;;;2.67;2.67;;;;;20.83;37.29;101480.69;4882737;29;45375;-84
2022/05/13 11:15:21;;;;;;;;;3.00;1.00;;;;;21.09;37.79;101512.69;4867568;29;47080;-85
2022/05/13 11:21:51;;;;;;;;;2.00;2.00;;;;;21.11;36.10;101529.81;4858405;29;45415;-85
2022/05/13 11:31:11;;;;;;;;;0.00;0.00;;;;;21.05;36.69;101492.03;4873690;29;44885;-85
2022/05/13 11:33:57;;;;;;;;;1.00;1.00;;;;;21.17;36.67;101517.06;4873190;29;45391;-85
2022/05/13 11:36:49;;;;;;;;;2.00;2.00;;;;;21.18;37.00;101496.28;4858869;29;44995;-85
2022/05/13 11:39:39;;;;;;;;;2.00;2.00;;;;;21.36;37.39;101509.47;4858015;29;48295;-87
2022/05/13 11:42:12;;;;;;;;;3.33;3.00;;;;;21.45;37.16;101507.56;4852775;29;45573;-84
2022/05/13 11:45:14;;;;;;;;;2.67;2.00;;;;;21.57;36.85;101508.25;4853544;29;46923;-84
2022/05/13 11:48:14;;;;;;;;;2.00;1.33;;;;;21.63;36.49;101512.63;4837440;29;45406;-87
2022/05/13 11:51:01;;;;;;;;;2.00;2.00;;;;;21.42;36.76;101464.31;4872598;29;45826;-88
2022/05/13 11:57:10;;;;;;;;;1.33;1.33;;;;;21.56;35.90;101462.25;4872212;29;45862;-85
2022/05/13 12:00:45;;;;;;;;;2.00;2.00;;;;;21.87;35.68;101500.41;4789767;29;45936;-88
2022/05/13 12:03:12;;;;;;;;;1.00;1.00;;;;;21.74;35.61;101488.94;4714376;30;46407;-85
2022/05/13 12:06:05;;;;;;;;;2.00;2.00;;;;;21.77;35.15;101493.38;4717043;30;45474;-86
2022/05/13 12:15:51;;;;;;;;;3.00;2.00;;;;;21.51;36.25;101496.63;4738075;29;45509;-85
2022/05/13 12:19:13;;;;;;;;;;;;;;;;;;;;;
2022/05/13 12:25:33;;;;;;;;;2.67;2.67;;;;;21.41;36.74;101476.94;4746350;29;45491;-86
2022/05/13 12:28:12;;;;;;;;;4.00;3.00;;;;;21.26;36.50;101453.75;4787662;29;45522;-84
2022/05/13 12:30:50;;;;;;;;;1.00;1.00;;;;;21.24;36.67;101444.78;4746033;29;45654;-86
2022/05/13 12:44:43;;;;;;;;;;;;;;;;;;;;;
2022/05/13 12:47:36;;;;;;;;;;;;;;;;;;;;;
2022/05/13 12:50:46;;;;;;;;;2.00;2.00;;;;;21.73;36.33;101460.09;4689045;30;65027;-84
2022/05/13 12:54:01;;;;;;;;;2.67;2.67;;;;;21.82;36.69;101463.53;4655959;30;45693;-85
2022/05/13 13:00:04;;;;;;;;;2.67;2.67;;;;;21.88;36.18;101442.63;4764792;29;45440;-86
2022/05/13 13:02:32;;;;;;;;;1.00;1.00;;;;;21.81;36.21;101423.81;4859108;28;44983;-87
2022/05/13 13:07:42;;;;;;;;;14.67;12.00;;;;;21.96;35.83;101456.00;4987938;23;45403;-85
2022/05/13 13:10:28;;;;;;;;;6.67;6.67;;;;;21.84;35.34;101429.19;4883892;28;45649;-86
2022/05/13 13:13:20;;;;;;;;;2.00;2.00;;;;;22.04;35.82;101454.00;4885233;28;46932;-86
2022/05/13 13:15:59;;;;;;;;;1.00;1.00;;;;;21.94;35.99;101425.34;4885247;29;47120;-85
2022/05/13 13:18:34;;;;;;;;;2.33;2.33;;;;;22.06;35.53;101452.16;4883599;29;45433;-87
2022/05/13 13:21:36;;;;;;;;;2.00;2.00;;;;;21.96;35.69;101440.63;4904895;28;45301;-87
2022/05/13 13:25:16;;;;;;;;;3.00;3.00;;;;;21.98;35.64;101427.06;4905227;28;44931;-87
2022/05/13 13:39:10;;;;;;;;;1.00;1.00;;;;;21.91;34.76;101401.03;5202974;23;46803;-86
2022/05/13 13:42:02;;;;;;;;;3.00;3.00;;;;;22.04;35.47;101415.22;4865692;29;44934;-87
2022/05/13 13:44:41;;;;;;;;;2.00;2.00;;;;;22.18;35.32;101427.50;4844759;29;45559;-86
2022/05/13 13:47:59;;;;;;;;;1.00;1.00;;;;;22.71;35.19;101439.81;4861524;29;44908;-87
2022/05/13 13:50:33;;;;;;;;;1.33;1.33;;;;;24.35;33.87;101388.06;4850233;29;45229;-87
2022/05/13 13:53:25;;;;;;;;;1.33;1.33;;;;;26.89;30.36;101354.75;4848947;29;45330;-88
2022/05/13 13:56:09;;;;;;;;;2.00;2.00;;;;;29.57;28.91;101404.53;4853141;29;44866;-86
2022/05/13 13:59:32;;;;;;;;;3.00;2.67;;;;;31.95;27.01;101394.00;4854113;29;45406;-86
2022/05/13 14:02:00;;;;;;;;;2.33;2.33;;;;;33.32;25.26;101355.28;4834718;29;47141;-87
2022/05/13 14:04:49;;;;;;;;;2.00;2.00;;;;;34.86;23.66;101387.97;4854276;29;45367;-85
2022/05/13 14:07:16;;;;;;;;;1.00;1.00;;;;;35.55;23.66;101390.78;4874388;29;45528;-85
2022/05/13 14:09:59;;;;;;;;;;;;;;;;;;;;;
2022/05/13 14:12:55;;;;;;;;;3.00;3.00;;;;;37.70;21.67;101367.84;4860784;29;74452;-85